Terminal Aerodrome Forecast
Issued by NWS Paducah, KY

Home | Current Version | Previous Version | Text Only | Print | Product List | Glossary On
Versions: 1 2 3 4 5 6 7 8 9 10 11 12 13 14 15 16 17 18 19 20 21 22
992
FTUS43 KPAH 202003 AAA
TAFEVV
TAF AMD
KEVV 202003Z 2020/2118 20008KT P6SM BKN035
      TEMPO 2020/2023 BKN025
     FM202300 15005KT P6SM BKN035
     FM210200 19007KT P6SM BKN035
     FM210700 19005KT P6SM BKN250
     FM211500 19011G17KT P6SM SCT025=

USA.gov is the U.S. government's official web portal to all federal, state and local government web resources and services.